ЗЦ Новосибирск

Зональный Центр Единой Системы Организации Воздушного Движения (ЗЦ ЕС ОрВД) Новосибирск является структурным подразделением дивизиона VATRUS сети VATSIM.

ЗЦ включает в себя РПИ Новосибирска, Красноярска и Иркутска, которые вместе покрывают воздушное пространство над территорией Сибирского федерального округа Российской Федерации общей площадью более 5 млн км². На территории зонального центра располагаются более 10 международных аэропортов федерального значения; кроме того, именно в верхнем воздушном пространстве Новосибирска и Красноярска проходят Транссибирские трассы, обеспечивающие транзитный поток воздушных судов из Европы и Северной Америки в Азию и обратно через 18 коридоров, соединяющих Россию с Монголией, Китаем и Казахстаном.

В сети ВАТСИМ обслуживание воздушного движения над территорией ЗЦ Новосибирск осуществляет позиция RU-ESC_FSS, позывной "Байкал-Центр", частота 135.225.

Лого ЗЦ Новосибирск
Руководитель региона

Aleksey Nevzorov

Контакты

Инструкторы региона
Aleksey Nevzorov (Instructor)
Anton Myglan (Senior Instructor)
Artem Smychkov (Instructor)
Kirill Shabunin * (Senior Controller)
Mikhail Gogolev (Instructor)
Mikhail Pompushko * (Senior Student)
Sergey Korolev (Instructor)
Tigran Areian * (Controller)
Включает в себя

РПИ Иркутск
РПИ Красноярск
РПИ Новосибирск

Диспетчеры региона

Диспетчер Рейтинг Допуски *
Aleksey Nevzorov Instructor UNNT_CTR
Artem Smychkov Instructor UIII_CTR, UNKL_CTR, UNNT_CTR
Ivan Chokenyuk Controller UNKL_CTR
Karim Garifullin Instructor UIII_CTR, UNKL_CTR, UNNT_CTR
Kirill Shabunin Senior Controller UIII_CTR, UNKL_CTR, UNNT_CTR
Mikhail Gogolev Instructor UIII_CTR, UNKL_CTR, UNNT_CTR
Sergey Korolev Instructor UIII_CTR
Tigran Areian Controller UIII_CTR, UNKL_CTR, UNNT_CTR
Alexander Shchelganov Senior Student UNNT_APP
Alexey Ginko Student UNNT_GND
Andrey Myagkih Student UNNT_GND
Andrey Zonov Student 2 UIII_TWR, UNNT_TWR
Anton Agaev Instructor UNKL_GND
Anton Gluchenkov Student 2 UNNT_TWR
Arseniy Kucheev Student 2 UIII_TWR, UNKL_TWR, UNEE_TWR, UNOO_GND, UNNT_R_APP*, UNNT_TWR
Artem Glinchikov Student UNNT_GND
Artem Tsendrovsky Senior Student UIII_APP, UNKL_APP(UNKL+UNKM), UNOO_APP, UNNT_APP
Artem Yusko Student UNNT_GND
Atsamaz Khodov Senior Student UIII_TWR
Boris Yakunin Student UNNT_TWR*, UNNT_GND
Daniel Ryabkov Senior Student UIII_APP
Daniil Shirshikov Student UNNT_GND
Darya Krauz Student UNNT_GND
Igor Murashkin Student UNNT_GND
Kirill Ivanov Senior Student UIII_APP, UNKL_APP(UNKL+UNKM), UNOO_APP, UNWW_APP, UNBG_TWR, UNTT_TWR, UNNT_APP, UNEE_APP
Kirill Valigun Student 2 UNNT_R_APP*
Konstantin Bednov Student 2 UNKL_TWR, UNNT_R_APP*, UNNT_TWR, UNOO_TWR
Maxim Konovalov Student UNNT_GND
Mikhail Pompushko Senior Student UITT_TWR, UIII_TWR, UNBG_TWR, UNWW_APP, UNSS_R_APP, UNNT_APP
Semen Vaysman Student UNNT_GND
Sergey Arkasov Student 2 UNKL_TWR, UNNT_TWR*, UNNT_GND, UNBB_TWR
Stas Butrim Student UNNT_GND
Stepan Seleznev Student 2 UNNT_GND
Timofei Degtyar Student 2 UIII_TWR, UNNT_TWR, UNNT_R_APP*, UNOO_TWR
Vadim Kuzmin Student UNNT_TWR*, UNNT_GND
vlad vartanov Student UNNT_GND
Yaroslav Vasilyev Student 2 UIII_TWR
Yulia Khudic Student UNNT_GND

Аэропорты региона

ICAO Город Название Погода
UNKL Красноярск Красноярск UNKL 020100Z 00000MPS CAVOK 16/11 Q1003 R29/CLRD65 NOSIG RMK QFE727
UNAA Абакан Абакан UNAA 020100Z 19001MPS CAVOK 18/11 Q1005 R20/CLRD65 NOSIG RMK QFE731
UNKS Ачинск Ачинск
UNIB Байкит Байкит
UNBB Барнаул Барнаул UNBB 020100Z 27007MPS 9999 SCT027 15/09 Q1006 R24/CLRD66 NOSIG RMK QFE732
UNIP Бор Подкаменная Тунгуска
UIBB Братск Братск UIBB 020100Z 31003MPS 280V350 9999 SCT008 BKN016CB 16/15 Q1001 R30/220160 NOSIG RMK QBB250 MT OBSC QFE708/0945
UNIW Ванавара Ванавара
UNBG Горно-Алтайск Горно-Алтайск
UNII Енисейск Енисейск
UIBV Железногорск Железногорск
UOII Игарка Игарка
UIII Иркутск Иркутск UIII 020100Z VRB01MPS 9999 SCT021CB 20/16 Q1000 R30/CLRD60 NOSIG RMK QFE706/0941
UNEE Кемерово Кемерово UNEE 020100Z 23004MPS 9999 SCT036CB 13/11 Q1003 R23/CLRD60 NOSIG RMK QFE729
UNKM Красноярск-КЯС Черемшанка
UNKY Кызыл Кызыл
UNWW Новокузнецк Новокузнецк UNWW 020100Z 19003MPS 9999 BKN040CB 14/08 Q1005 R01/09//60 NOSIG RMK QFE727
UNNT Новосибирск Новосибирск UNNT 020100Z 24006MPS 9999 SCT010 OVC020 15/12 Q1003 R25/090070 R34/////// NOSIG RMK QFE742/0990
UOOO Норильск Норильск UOOO 020100Z 01010MPS CAVOK 13/08 Q0998 R01/CLRD60 NOSIG RMK QFE734/0979
UNOO Омск Омск UNOO 020100Z 29003MPS CAVOK 14/11 Q1008 R25/CLRD60 NOSIG RMK QFE747
UOIG Светлогорск Светлогорск
UNIS Северо-Енисейск Северо-Енисейск
UNSS Стрежевой Стрежевой
UNTT Томск Томск UNTT 020100Z 21005MPS 2000 R21/2000D -SHRA BR BKN005CB 12/12 Q1000 R21/290150 NOSIG RMK QFE735
UIUU Улан-Удэ Улан-Удэ UIUU 020100Z 10005MPS 080V140 9999 NSC 28/16 Q1000 R08/60D NOSIG RMK QFE705/0940
UITT Усть-Кут Усть-Кут
UOHH Хатанга Хатанга
UIAA Чита Чита UIAA 020100Z VRB01MPS 9999 VCFG FEW006 22/17 Q1005 R29/CLRD70 NOSIG RMK QBB200 MT OBSC QFE696/0928
UNKB Богучаны Богучаны
UIKB Бодайбо Бодайбо
UIKK Киренск Киренск
UNKI Кодинск Кодинск
UIUN Нижнеангарск Нижнеангарск
UECT Талакан Талакан
UNIT Тура Горный
UOTT Туруханск Туруханск
UIBS Усть-Илимск Усть-Илимск
UIAR Чара Чара
UNAU Шушенское Шушенское